createdAt,value
2018-12-21T00:00:54.085Z,94.20
2018-12-21T00:03:21.957Z,94.30
2018-12-21T00:05:49.440Z,94.20
2018-12-21T00:08:17.020Z,94.10
2018-12-21T00:10:44.613Z,94.00
2018-12-21T00:13:12.093Z,93.90
2018-12-21T00:15:39.644Z,93.90
2018-12-21T00:18:07.164Z,93.60
2018-12-21T00:20:34.944Z,93.60
2018-12-21T00:23:02.581Z,93.60
2018-12-21T00:25:30.179Z,93.60
2018-12-21T00:27:57.712Z,93.90
2018-12-21T00:30:24.777Z,94.00
2018-12-21T00:32:57.778Z,94.20
2018-12-21T00:35:30.980Z,93.90
2018-12-21T00:38:05.667Z,94.00
2018-12-21T00:40:39.169Z,94.00
2018-12-21T00:43:43.634Z,94.10
2018-12-21T00:46:15.765Z,94.20
2018-12-21T00:48:43.745Z,94.20
2018-12-21T00:51:11.292Z,94.40
2018-12-21T00:53:38.899Z,94.50
2018-12-21T00:56:06.739Z,94.40
2018-12-21T00:58:34.348Z,94.50
2018-12-21T01:01:02.168Z,94.80
2018-12-21T01:03:29.677Z,95.30
2018-12-21T01:05:57.233Z,95.60
2018-12-21T01:08:24.795Z,95.50
2018-12-21T01:10:52.348Z,95.80
2018-12-21T01:13:20.024Z,96.00
2018-12-21T01:15:47.713Z,96.10
2018-12-21T01:18:15.657Z,96.20
2018-12-21T01:20:43.197Z,96.30
2018-12-21T01:23:10.817Z,96.20
2018-12-21T01:25:38.388Z,96.30
2018-12-21T01:28:05.964Z,96.40
2018-12-21T01:30:33.911Z,96.60
2018-12-21T01:33:01.388Z,96.40
2018-12-21T01:35:28.965Z,96.10
2018-12-21T01:37:56.620Z,96.20
2018-12-21T01:40:24.149Z,95.90
2018-12-21T01:42:51.777Z,95.90
2018-12-21T01:45:19.301Z,95.80
2018-12-21T01:47:46.876Z,95.80
2018-12-21T01:50:14.473Z,95.80
2018-12-21T01:52:42.245Z,95.70
2018-12-21T01:55:09.866Z,95.70
2018-12-21T01:57:37.415Z,95.50
2018-12-21T02:00:05.905Z,95.50
2018-12-21T02:02:33.451Z,95.60
2018-12-21T02:05:01.053Z,95.60
2018-12-21T02:07:28.645Z,95.60
2018-12-21T02:09:56.205Z,95.50
2018-12-21T02:12:23.837Z,95.60
2018-12-21T02:14:51.467Z,95.60
2018-12-21T02:17:19.041Z,95.50
2018-12-21T02:19:46.801Z,95.50
2018-12-21T02:22:14.442Z,95.50
2018-12-21T02:24:42.065Z,95.50
2018-12-21T02:27:09.722Z,95.20
2018-12-21T02:29:37.325Z,95.40
2018-12-21T02:32:05.101Z,95.40
2018-12-21T02:34:32.622Z,95.30
2018-12-21T02:37:00.121Z,95.30
2018-12-21T02:39:27.684Z,95.30
2018-12-21T02:41:55.166Z,95.30
2018-12-21T02:44:22.703Z,95.30
2018-12-21T02:46:50.454Z,95.30
2018-12-21T02:49:17.953Z,95.20
2018-12-21T02:51:45.514Z,95.20
2018-12-21T02:54:13.153Z,95.30
2018-12-21T02:56:40.717Z,95.30
2018-12-21T02:59:08.350Z,95.30
2018-12-21T03:01:36.043Z,95.30
2018-12-21T03:04:03.829Z,95.10
2018-12-21T03:06:31.342Z,95.10
2018-12-21T03:08:59.213Z,95.00
2018-12-21T03:11:26.710Z,94.80
2018-12-21T03:13:54.236Z,94.80
2018-12-21T03:16:22.001Z,94.60
2018-12-21T03:18:49.482Z,94.50
2018-12-21T03:21:17.176Z,94.30
2018-12-21T03:23:45.064Z,94.20
2018-12-21T03:26:12.662Z,94.10
2018-12-21T03:28:40.161Z,94.10
2018-12-21T03:31:08.119Z,94.20
2018-12-21T03:33:36.287Z,94.20
2018-12-21T03:36:03.806Z,94.00
2018-12-21T03:38:31.316Z,94.00
2018-12-21T03:40:58.837Z,93.80
2018-12-21T03:43:26.421Z,93.70
2018-12-21T03:45:54.041Z,93.70
2018-12-21T03:48:21.725Z,93.60
2018-12-21T03:50:49.221Z,93.60
2018-12-21T03:53:16.828Z,93.50
2018-12-21T03:55:44.365Z,93.30
2018-12-21T03:58:11.851Z,93.30
2018-12-21T04:00:39.381Z,93.20
2018-12-21T04:03:07.252Z,93.50
2018-12-21T04:05:34.761Z,93.10
2018-12-21T04:08:02.421Z,93.00
2018-12-21T04:10:30.357Z,93.10
2018-12-21T04:12:57.879Z,93.10
2018-12-21T04:15:25.432Z,93.10
2018-12-21T04:17:53.561Z,93.10
2018-12-21T04:20:21.174Z,93.00
2018-12-21T04:22:48.748Z,92.80
2018-12-21T04:25:16.632Z,92.90
2018-12-21T04:27:44.270Z,93.30
2018-12-21T04:30:11.857Z,93.00
2018-12-21T04:32:39.371Z,93.00
2018-12-21T04:35:07.102Z,93.10
2018-12-21T04:37:34.629Z,93.10
2018-12-21T04:40:02.231Z,93.10
2018-12-21T04:42:29.848Z,93.10
2018-12-21T04:44:57.489Z,93.20
2018-12-21T04:47:24.981Z,93.20
2018-12-21T04:49:52.481Z,93.20
2018-12-21T04:52:20.216Z,93.30
2018-12-21T04:54:47.785Z,93.40
2018-12-21T04:57:15.377Z,93.50
2018-12-21T04:59:42.981Z,93.40
2018-12-21T05:02:10.564Z,93.30
2018-12-21T05:04:38.271Z,93.60
2018-12-21T05:07:12.232Z,93.40
2018-12-21T05:09:35.364Z,93.50
2018-12-21T05:12:03.013Z,93.70
2018-12-21T05:14:30.513Z,93.80
2018-12-21T05:16:58.057Z,93.80
2018-12-21T05:19:25.681Z,94.00
2018-12-21T05:21:53.441Z,94.00
2018-12-21T05:24:20.953Z,94.30
2018-12-21T05:26:48.568Z,94.30
2018-12-21T05:29:16.125Z,94.60
2018-12-21T05:31:43.846Z,94.50
2018-12-21T05:34:11.526Z,94.40
2018-12-21T05:36:39.029Z,94.30
2018-12-21T05:39:06.856Z,94.10
2018-12-21T05:41:34.450Z,93.80
2018-12-21T05:44:02.036Z,93.70
2018-12-21T05:46:29.623Z,93.70
2018-12-21T05:48:57.163Z,93.50
2018-12-21T05:51:24.881Z,93.50
2018-12-21T05:53:52.411Z,93.40
2018-12-21T05:56:19.914Z,93.30
2018-12-21T05:58:47.510Z,93.10
2018-12-21T06:01:15.179Z,92.90
2018-12-21T06:03:42.696Z,92.80
2018-12-21T06:06:10.230Z,92.60
2018-12-21T06:08:37.852Z,92.40
2018-12-21T06:11:05.479Z,92.30
2018-12-21T06:13:33.373Z,92.10
2018-12-21T06:16:00.941Z,92.10
2018-12-21T06:18:28.421Z,92.20
2018-12-21T06:20:55.928Z,92.20
2018-12-21T06:23:23.535Z,92.30
2018-12-21T06:25:51.416Z,92.40
2018-12-21T06:28:18.961Z,92.50
2018-12-21T06:30:46.660Z,92.20
2018-12-21T06:33:14.222Z,92.10
2018-12-21T06:35:41.884Z,92.10
2018-12-21T06:38:09.701Z,92.20
2018-12-21T06:40:37.328Z,92.10
2018-12-21T06:43:04.974Z,92.20
2018-12-21T06:45:32.960Z,92.30
2018-12-21T06:48:00.454Z,92.30
2018-12-21T06:50:28.079Z,92.40
2018-12-21T06:52:55.840Z,92.30
2018-12-21T06:55:23.448Z,92.30
2018-12-21T06:57:51.117Z,92.40
2018-12-21T07:00:19.048Z,92.40
2018-12-21T07:02:46.553Z,92.30
2018-12-21T07:05:14.050Z,92.20
2018-12-21T07:07:41.648Z,92.40
2018-12-21T07:10:10.577Z,92.30
2018-12-21T07:12:38.227Z,92.30
2018-12-21T07:15:06.788Z,92.20
2018-12-21T07:17:34.554Z,92.00
2018-12-21T07:20:02.175Z,92.00
2018-12-21T07:22:29.821Z,92.00
2018-12-21T07:24:57.392Z,91.90
2018-12-21T07:27:25.018Z,91.90
2018-12-21T07:29:52.630Z,92.00
2018-12-21T07:32:20.208Z,91.60
2018-12-21T07:34:47.707Z,91.70
2018-12-21T07:37:15.382Z,91.70
2018-12-21T07:39:43.293Z,91.50
2018-12-21T07:42:11.043Z,91.50
2018-12-21T07:44:38.557Z,91.30
2018-12-21T07:47:06.174Z,91.30
2018-12-21T07:49:33.762Z,91.20
2018-12-21T07:52:01.348Z,91.30
2018-12-21T07:54:28.915Z,91.30
2018-12-21T07:56:56.459Z,91.20
2018-12-21T07:59:24.113Z,91.10
2018-12-21T08:01:51.652Z,90.90
2018-12-21T08:04:19.174Z,90.90
2018-12-21T08:06:46.867Z,90.70
2018-12-21T08:09:14.779Z,90.80
2018-12-21T08:11:42.388Z,90.80
2018-12-21T08:14:09.938Z,90.70
2018-12-21T08:16:37.552Z,90.80
2018-12-21T08:19:05.176Z,90.90
2018-12-21T08:21:32.718Z,91.10
2018-12-21T08:24:00.240Z,91.10
2018-12-21T08:26:27.809Z,91.10
2018-12-21T08:28:55.328Z,91.30
2018-12-21T08:31:22.956Z,91.30
2018-12-21T08:33:50.591Z,91.30
2018-12-21T08:36:18.109Z,91.10
2018-12-21T08:38:45.645Z,91.30
2018-12-21T08:41:13.273Z,91.30
2018-12-21T08:43:40.932Z,91.50
2018-12-21T08:46:08.860Z,91.40
2018-12-21T08:48:36.470Z,91.40
2018-12-21T08:51:04.253Z,91.40
2018-12-21T08:53:31.814Z,91.50
2018-12-21T08:55:59.585Z,91.60
2018-12-21T08:58:27.880Z,91.60
2018-12-21T09:00:55.509Z,91.60
2018-12-21T09:03:23.033Z,91.60
2018-12-21T09:05:50.644Z,91.30
2018-12-21T09:08:18.262Z,91.40
2018-12-21T09:10:45.753Z,91.30
2018-12-21T09:13:13.598Z,91.20
2018-12-21T09:15:41.113Z,91.10
2018-12-21T09:18:08.885Z,91.00
2018-12-21T09:20:36.658Z,90.90
2018-12-21T09:23:04.280Z,91.00
2018-12-21T09:25:32.165Z,91.00
2018-12-21T09:27:59.684Z,90.90
2018-12-21T09:30:27.379Z,90.80
2018-12-21T09:32:55.191Z,90.70
2018-12-21T09:35:22.802Z,90.90
2018-12-21T09:37:50.446Z,90.70
2018-12-21T09:40:18.194Z,90.60
2018-12-21T09:42:45.771Z,90.70
2018-12-21T09:45:13.421Z,90.40
2018-12-21T09:47:41.423Z,90.30
2018-12-21T09:50:09.834Z,90.30
2018-12-21T09:52:37.357Z,90.10
2018-12-21T09:55:05.940Z,90.10
2018-12-21T09:57:33.637Z,90.00
2018-12-21T10:00:01.309Z,89.90
2018-12-21T10:02:35.769Z,89.50
2018-12-21T10:04:58.233Z,89.20
2018-12-21T10:07:27.735Z,88.70
2018-12-21T10:09:55.080Z,88.20
2018-12-21T10:12:22.495Z,87.80
2018-12-21T10:14:49.930Z,87.60
2018-12-21T10:17:17.303Z,87.20
2018-12-21T10:19:44.709Z,87.00
2018-12-21T10:22:12.318Z,87.20
2018-12-21T10:24:39.778Z,86.90
2018-12-21T10:27:07.171Z,86.90
2018-12-21T10:29:34.644Z,87.20
2018-12-21T10:32:02.141Z,86.70
2018-12-21T10:34:29.681Z,86.70
2018-12-21T10:36:57.589Z,87.20
2018-12-21T10:39:25.350Z,87.40
2018-12-21T10:41:52.752Z,86.90
2018-12-21T10:44:20.200Z,86.30
2018-12-21T10:46:47.785Z,86.60
2018-12-21T10:49:15.610Z,86.50
2018-12-21T10:51:43.002Z,86.40
2018-12-21T10:54:10.461Z,86.30
2018-12-21T10:56:37.928Z,86.20
2018-12-21T10:59:05.347Z,85.90
2018-12-21T11:01:33.338Z,85.70
2018-12-21T11:04:00.874Z,85.80
2018-12-21T11:06:28.243Z,85.80
2018-12-21T11:08:55.852Z,85.70
2018-12-21T11:11:23.218Z,85.70
2018-12-21T11:13:50.603Z,85.90
2018-12-21T11:16:18.126Z,85.50
2018-12-21T11:18:45.631Z,85.20
2018-12-21T11:21:13.137Z,84.90
2018-12-21T11:23:40.601Z,85.40
2018-12-21T11:26:08.309Z,84.90
2018-12-21T11:28:35.718Z,84.70
2018-12-21T11:31:03.354Z,84.90
2018-12-21T11:33:30.745Z,84.50
2018-12-21T11:35:58.214Z,84.70
2018-12-21T11:38:25.806Z,83.70
2018-12-21T11:40:53.205Z,84.20
2018-12-21T11:43:20.589Z,83.80
2018-12-21T11:45:48.362Z,83.40
2018-12-21T11:48:15.729Z,83.00
2018-12-21T11:50:43.273Z,82.70
2018-12-21T11:53:10.713Z,82.60
2018-12-21T11:55:38.112Z,82.90
2018-12-21T11:58:05.604Z,83.10
2018-12-21T12:00:33.237Z,83.00
2018-12-21T12:03:00.677Z,83.50
2018-12-21T12:05:28.184Z,83.40
2018-12-21T12:07:55.580Z,83.30
2018-12-21T12:10:23.025Z,83.60
2018-12-21T12:12:50.513Z,83.90
2018-12-21T12:15:17.924Z,84.00
2018-12-21T12:17:45.746Z,84.00
2018-12-21T12:20:13.161Z,84.10
2018-12-21T12:22:40.552Z,83.90
2018-12-21T12:25:08.101Z,84.20
2018-12-21T12:27:35.708Z,84.00
2018-12-21T12:30:03.658Z,83.50
2018-12-21T12:32:31.051Z,84.20
2018-12-21T12:34:58.461Z,83.90
2018-12-21T12:37:25.920Z,84.10
2018-12-21T12:39:53.315Z,84.20
2018-12-21T12:42:21.201Z,84.50
2018-12-21T12:44:48.746Z,84.50
2018-12-21T12:47:16.140Z,84.60
2018-12-21T12:49:43.568Z,84.70
2018-12-21T12:52:11.005Z,84.80
2018-12-21T12:54:38.718Z,84.90
2018-12-21T12:57:06.235Z,85.00
2018-12-21T12:59:33.618Z,84.70
2018-12-21T13:02:01.181Z,84.70
2018-12-21T13:04:28.594Z,84.90
2018-12-21T13:06:56.017Z,84.90
2018-12-21T13:09:23.401Z,84.70
2018-12-21T13:11:50.813Z,85.00
2018-12-21T13:14:18.430Z,84.90
2018-12-21T13:16:46.176Z,85.30
2018-12-21T13:19:13.626Z,85.60
2018-12-21T13:21:41.165Z,85.90
2018-12-21T13:24:08.673Z,86.20
2018-12-21T13:26:36.104Z,86.00
2018-12-21T13:29:04.097Z,85.30
2018-12-21T13:31:31.570Z,85.60
2018-12-21T13:33:59.069Z,85.40
2018-12-21T13:36:26.680Z,85.20
2018-12-21T13:38:54.066Z,85.50
2018-12-21T13:41:21.439Z,85.20
2018-12-21T13:43:49.073Z,84.90
2018-12-21T13:46:16.437Z,85.10
2018-12-21T13:48:43.808Z,85.00
2018-12-21T13:51:11.442Z,85.00
2018-12-21T13:53:38.815Z,85.50
2018-12-21T13:56:06.207Z,85.60
2018-12-21T13:58:33.641Z,85.60
2018-12-21T14:01:01.025Z,85.10
2018-12-21T14:03:28.515Z,85.20
2018-12-21T14:05:56.173Z,85.70
2018-12-21T14:08:23.535Z,85.90
2018-12-21T14:10:50.908Z,86.00
2018-12-21T14:13:18.320Z,85.70
2018-12-21T14:15:46.158Z,85.40
2018-12-21T14:18:13.528Z,85.30
2018-12-21T14:20:40.884Z,85.20
2018-12-21T14:23:08.284Z,85.40
2018-12-21T14:25:36.687Z,84.90
2018-12-21T14:28:04.185Z,84.80
2018-12-21T14:30:31.617Z,84.50
2018-12-21T14:32:59.017Z,84.20
2018-12-21T14:35:26.437Z,84.00
2018-12-21T14:37:54.023Z,83.90
2018-12-21T14:40:21.419Z,84.00
2018-12-21T14:42:48.834Z,83.50
2018-12-21T14:45:16.258Z,83.20
2018-12-21T14:47:43.969Z,83.60
2018-12-21T14:50:11.631Z,84.00
2018-12-21T14:52:39.013Z,84.10
2018-12-21T14:55:07.154Z,84.30
2018-12-21T14:57:34.584Z,83.70
2018-12-21T15:00:01.989Z,83.50
2018-12-21T15:02:29.374Z,83.10
2018-12-21T15:04:57.086Z,82.70
2018-12-21T15:07:24.485Z,82.80
2018-12-21T15:09:51.866Z,83.90
2018-12-21T15:12:19.518Z,83.40
2018-12-21T15:14:46.953Z,83.20
2018-12-21T15:17:14.337Z,82.90
2018-12-21T15:19:42.045Z,83.00
2018-12-21T15:22:09.477Z,83.60
2018-12-21T15:24:36.878Z,83.30
2018-12-21T15:27:04.265Z,83.30
2018-12-21T15:29:31.657Z,83.00
2018-12-21T15:31:59.040Z,82.10
2018-12-21T15:34:26.465Z,82.30
2018-12-21T15:36:53.837Z,82.30
2018-12-21T15:39:21.480Z,82.00
2018-12-21T15:41:48.879Z,81.20
2018-12-21T15:44:16.261Z,81.40
2018-12-21T15:46:43.685Z,80.60
2018-12-21T15:49:11.071Z,81.40
2018-12-21T15:51:38.466Z,80.80
2018-12-21T15:54:05.863Z,80.90
2018-12-21T15:56:33.408Z,79.90
2018-12-21T15:59:00.771Z,80.10
2018-12-21T16:01:36.614Z,79.80
2018-12-21T16:03:57.967Z,80.40
2018-12-21T16:06:25.376Z,80.30
2018-12-21T16:08:53.061Z,79.90
2018-12-21T16:11:20.465Z,79.70
2018-12-21T16:13:47.865Z,80.00
2018-12-21T16:16:15.412Z,80.20
2018-12-21T16:18:42.826Z,80.00
2018-12-21T16:21:10.248Z,79.40
2018-12-21T16:23:37.696Z,79.80
2018-12-21T16:26:05.140Z,79.50
2018-12-21T16:28:32.574Z,81.00
2018-12-21T16:30:59.988Z,79.10
2018-12-21T16:33:27.415Z,79.00
2018-12-21T16:35:54.865Z,79.40
2018-12-21T16:38:22.242Z,78.70
2018-12-21T16:40:49.657Z,78.90
2018-12-21T16:43:17.047Z,78.80
2018-12-21T16:45:44.879Z,78.80
2018-12-21T16:48:12.264Z,78.60
2018-12-21T16:50:39.745Z,78.90
2018-12-21T16:53:07.475Z,78.30
2018-12-21T16:55:35.025Z,78.20
2018-12-21T16:58:02.404Z,77.70
2018-12-21T17:00:29.835Z,78.00
2018-12-21T17:02:57.210Z,77.50
2018-12-21T17:05:24.601Z,77.20
2018-12-21T17:07:52.242Z,77.50
2018-12-21T17:10:21.593Z,77.50
2018-12-21T17:12:49.000Z,76.70
2018-12-21T17:15:16.462Z,76.40
2018-12-21T17:17:43.912Z,75.80
2018-12-21T17:20:11.303Z,75.80
2018-12-21T17:22:38.691Z,75.40
2018-12-21T17:25:09.141Z,74.60
2018-12-21T17:27:36.738Z,74.50
2018-12-21T17:30:05.892Z,74.60
2018-12-21T17:32:33.299Z,73.40
2018-12-21T17:35:00.716Z,73.90
2018-12-21T17:37:28.085Z,73.70
2018-12-21T17:39:55.474Z,74.00
2018-12-21T17:42:23.136Z,73.20
2018-12-21T17:44:50.604Z,72.70
2018-12-21T17:47:18.012Z,73.40
2018-12-21T17:49:45.421Z,72.70
2018-12-21T17:52:12.940Z,72.20
2018-12-21T17:54:40.330Z,72.50
2018-12-21T17:57:07.684Z,72.70
2018-12-21T17:59:35.097Z,72.80
2018-12-21T18:02:02.813Z,72.20
2018-12-21T18:04:30.178Z,72.20
2018-12-21T18:06:57.832Z,72.30
2018-12-21T18:09:28.583Z,71.60
2018-12-21T18:11:57.275Z,71.10
2018-12-21T18:14:25.112Z,72.20
2018-12-21T18:16:52.529Z,71.90
2018-12-21T18:19:19.910Z,71.40
2018-12-21T18:21:53.961Z,70.90
2018-12-21T18:24:22.318Z,71.50
2018-12-21T18:26:49.842Z,71.50
2018-12-21T18:29:17.281Z,70.50
2018-12-21T18:31:51.481Z,70.40
2018-12-21T18:34:25.259Z,70.80
2018-12-21T18:36:52.656Z,70.90
2018-12-21T18:39:20.048Z,72.20
2018-12-21T18:41:47.621Z,71.70
2018-12-21T18:44:15.005Z,71.10
2018-12-21T18:46:42.428Z,71.40
2018-12-21T18:49:09.916Z,70.90
2018-12-21T18:51:37.443Z,71.50
2018-12-21T18:54:04.849Z,71.30
2018-12-21T18:56:35.405Z,71.60
2018-12-21T18:59:02.847Z,72.10
2018-12-21T19:01:30.243Z,72.10
2018-12-21T19:03:57.620Z,72.50
2018-12-21T19:06:25.036Z,72.40
2018-12-21T19:08:52.428Z,72.20
2018-12-21T19:11:19.824Z,73.20
2018-12-21T19:13:47.233Z,73.40
2018-12-21T19:16:14.827Z,73.20
2018-12-21T19:18:42.486Z,73.90
2018-12-21T19:21:10.012Z,73.60
2018-12-21T19:23:37.475Z,73.40
2018-12-21T19:26:04.870Z,73.50
2018-12-21T19:28:32.252Z,73.60
2018-12-21T19:30:59.754Z,73.60
2018-12-21T19:33:27.204Z,73.90
2018-12-21T19:35:55.036Z,74.30
2018-12-21T19:38:22.525Z,74.30
2018-12-21T19:40:49.933Z,74.50
2018-12-21T19:43:17.380Z,75.00
2018-12-21T19:45:44.909Z,75.20
2018-12-21T19:48:12.428Z,75.40
2018-12-21T19:50:39.908Z,75.60
2018-12-21T19:53:07.760Z,75.40
2018-12-21T19:55:46.577Z,75.40
2018-12-21T19:58:14.179Z,74.70
2018-12-21T20:00:41.633Z,74.30
2018-12-21T20:03:09.113Z,75.40
2018-12-21T20:05:36.556Z,74.90
2018-12-21T20:08:04.037Z,76.00
2018-12-21T20:10:31.468Z,76.20
2018-12-21T20:12:58.927Z,76.70
2018-12-21T20:15:26.361Z,77.00
2018-12-21T20:17:53.965Z,78.80
2018-12-21T20:20:21.389Z,78.50
2018-12-21T20:22:48.803Z,79.10
2018-12-21T20:25:16.644Z,80.20
2018-12-21T20:27:44.149Z,81.30
2018-12-21T20:30:14.849Z,81.80
2018-12-21T20:32:42.252Z,82.50
2018-12-21T20:35:09.812Z,82.90
2018-12-21T20:37:37.520Z,83.70
2018-12-21T20:40:05.904Z,84.40
2018-12-21T20:42:33.363Z,85.30
2018-12-21T20:45:00.857Z,86.00
2018-12-21T20:47:29.369Z,87.20
2018-12-21T20:49:57.196Z,88.00
2018-12-21T20:52:24.677Z,89.40
2018-12-21T20:54:52.165Z,90.20
2018-12-21T20:57:22.047Z,90.60
2018-12-21T20:59:50.021Z,91.20
2018-12-21T21:02:17.487Z,91.30
2018-12-21T21:04:45.021Z,91.70
2018-12-21T21:07:12.509Z,92.20
2018-12-21T21:09:39.960Z,93.00
2018-12-21T21:12:07.513Z,93.60
2018-12-21T21:14:34.985Z,93.70
2018-12-21T21:17:02.360Z,94.00
2018-12-21T21:19:33.857Z,93.90
2018-12-21T21:22:01.377Z,93.90
2018-12-21T21:24:28.793Z,93.80
2018-12-21T21:26:56.201Z,94.20
2018-12-21T21:29:23.759Z,94.80
2018-12-21T21:31:51.306Z,95.30
2018-12-21T21:34:18.705Z,95.80
2018-12-21T21:36:46.104Z,95.60
2018-12-21T21:39:13.505Z,96.00
2018-12-21T21:41:41.142Z,96.50
2018-12-21T21:44:09.212Z,96.80
2018-12-21T21:46:36.648Z,96.90
2018-12-21T21:49:04.084Z,97.10
2018-12-21T21:51:31.597Z,97.80
2018-12-21T21:53:58.998Z,98.00
2018-12-21T21:56:26.376Z,97.50
2018-12-21T21:58:53.745Z,98.00
2018-12-21T22:01:21.136Z,97.70
2018-12-21T22:03:48.500Z,97.80
2018-12-21T22:06:15.873Z,97.80
2018-12-21T22:08:43.309Z,97.70
2018-12-21T22:11:10.686Z,97.50
2018-12-21T22:13:38.060Z,97.30
2018-12-21T22:16:05.476Z,97.40
2018-12-21T22:18:32.871Z,97.20
2018-12-21T22:21:00.326Z,97.40
2018-12-21T22:23:27.733Z,97.00
2018-12-21T22:25:55.129Z,97.00
2018-12-21T22:28:29.404Z,96.80
2018-12-21T22:30:57.129Z,96.70
2018-12-21T22:33:24.621Z,96.40
2018-12-21T22:35:51.999Z,96.10
2018-12-21T22:38:19.435Z,96.10
2018-12-21T22:40:46.852Z,96.10
2018-12-21T22:43:14.233Z,95.90
2018-12-21T22:45:41.665Z,95.80
2018-12-21T22:48:09.062Z,95.60
2018-12-21T22:50:36.587Z,95.50
2018-12-21T22:53:04.145Z,95.40
2018-12-21T22:55:31.705Z,95.20
2018-12-21T22:57:59.085Z,95.00
2018-12-21T23:00:33.305Z,94.90
2018-12-21T23:03:00.692Z,94.70
2018-12-21T23:05:28.094Z,94.70
2018-12-21T23:07:55.717Z,94.80
2018-12-21T23:10:23.224Z,94.60
2018-12-21T23:12:50.774Z,94.50
2018-12-21T23:15:18.321Z,94.60
2018-12-21T23:17:45.714Z,94.50
2018-12-21T23:20:13.225Z,94.50
2018-12-21T23:22:40.790Z,94.50
2018-12-21T23:25:08.170Z,94.30
2018-12-21T23:27:35.945Z,94.10
2018-12-21T23:30:04.048Z,94.10
2018-12-21T23:32:31.429Z,94.10
2018-12-21T23:34:58.852Z,94.10
2018-12-21T23:37:26.248Z,94.10
2018-12-21T23:39:53.625Z,94.10
2018-12-21T23:42:21.030Z,94.00
2018-12-21T23:44:48.392Z,94.00
2018-12-21T23:47:15.801Z,94.20
2018-12-21T23:49:43.298Z,93.90
2018-12-21T23:52:10.688Z,93.70
2018-12-21T23:54:38.069Z,93.80
2018-12-21T23:57:05.445Z,93.70
2018-12-21T23:59:32.837Z,93.70
